Dan Jaworski — WDC6534 — position and weather

sailwx.info

Track history (hours):
 
Tides and Currents Weather Stations Pressure Air Temp Water Temp Dewpoint Dewpoint Depression Visibility Wind Speed Wind Dir Waves Ship Positions

Dan Jaworski

Owner: American Commercial Lines LLC, Jeffersonville, IN. More information available from US FCC via Universal Licensing System and Coast Guard Vessel Documentation Center.

Last reported at 2018-Feb-18 18:25 UTC. Time now 2018-Feb-23 00:52 UTC.
Position N 31°59' W 091°08'.

Length 48 m; draft 3.4 m.

Type: Towing. MMSI: 367057610.

Date/timePositionNaut miles runAvg speedWind from/ knotsBaromVisibWave heightAir tempDewpointWater temp
2018-Feb-18 18:25N 31°59' W 091°08'4 9.1
2018-Feb-18 17:57N 32°01' W 091°04'4 8.1
2018-Feb-18 17:26N 32°06' W 091°05'2 5.6
2018-Feb-18 17:01N 32°08' W 091°06'4 7.2
2018-Feb-18 16:31N 32°07' W 091°02'4 8.2
2018-Feb-18 16:01N 32°11' W 090°60'5 9.0
2018-Feb-18 15:30N 32°15' W 090°59'4 8.9
2018-Feb-18 15:01N 32°18' W 090°55'2 4.4
2018-Feb-18 14:30N 32°21' W 090°55'3 7.0
2018-Feb-18 14:01N 32°21' W 090°59'4 7.3
2018-Feb-18 13:31N 32°25' W 090°60'4 8.9
2018-Feb-18 13:01N 32°27' W 091°04'5 8.2
2018-Feb-18 12:25N 32°31' W 091°06'3 7.1
2018-Feb-18 12:00N 32°34' W 091°07'  
2018-Feb-11 12:10N 32°40' W 091°07'1 4.5
2018-Feb-11 12:01N 32°40' W 091°08'2 4.1
2018-Feb-11 11:31N 32°38' W 091°09'2 4.5
2018-Feb-11 11:00N 32°36' W 091°08'2 4.8
2018-Feb-11 10:30N 32°34' W 091°06'2 4.3
2018-Feb-11 10:00N 32°32' W 091°06'2 4.8
2018-Feb-11 09:30N 32°30' W 091°07'2 4.8
2018-Feb-11 09:01N 32°28' W 091°06'3 5.0
2018-Feb-11 08:31N 32°26' W 091°03'2 4.9
2018-Feb-11 08:01N 32°25' W 091°01'2 4.0
2018-Feb-11 07:31N 32°24' W 090°60'2 4.0
2018-Feb-11 07:01N 32°22' W 091°00'2 4.8
2018-Feb-11 06:30N 32°21' W 090°57'0 0.9
2018-Feb-11 06:01N 32°21' W 090°57'1 1.7
2018-Feb-11 05:31N 32°21' W 090°56'2 3.9
2018-Feb-11 05:01N 32°20' W 090°54'2 3.4
2018-Feb-11 04:30N 32°18' W 090°55'2 4.7
2018-Feb-11 04:01N 32°17' W 090°57'2 4.6
2018-Feb-11 03:30N 32°15' W 090°59'2 4.2
2018-Feb-11 03:01N 32°13' W 090°59'2 3.6
2018-Feb-11 02:31N 32°11' W 090°60'2 3.9
2018-Feb-11 02:00N 32°09' W 091°00'2 3.5
2018-Feb-11 01:30N 32°08' W 091°01'2 3.4
2018-Feb-11 00:58N 32°07' W 091°03'2 3.5
2018-Feb-11 00:31N 32°08' W 091°05'2 3.3
2018-Feb-11 00:00N 32°07' W 091°07'5 4.7
2018-Feb-10 23:00N 32°03' W 091°03'  
Track history (hours):
 
Tides and Currents Weather Stations Pressure Air Temp Water Temp Dewpoint Dewpoint Depression Visibility Wind Speed Wind Dir Waves Ship Positions

Dan Jaworski

Owner: American Commercial Lines LLC, Jeffersonville, IN. More information available from US FCC via Universal Licensing System and Coast Guard Vessel Documentation Center.

Last reported at 2018-Feb-18 18:25 UTC. Time now 2018-Feb-23 00:52 UTC.
Position N 31°59' W 091°08'.

Length 48 m; draft 3.4 m.

Type: Towing. MMSI: 367057610.

Date/timePositionNaut miles runAvg speedWind from/ knotsBaromVisibWave heightAir tempDewpointWater temp
2018-Feb-18 18:25N 31°59' W 091°08'4 9.1
2018-Feb-18 17:57N 32°01' W 091°04'4 8.1
2018-Feb-18 17:26N 32°06' W 091°05'2 5.6
2018-Feb-18 17:01N 32°08' W 091°06'4 7.2
2018-Feb-18 16:31N 32°07' W 091°02'4 8.2
2018-Feb-18 16:01N 32°11' W 090°60'5 9.0
2018-Feb-18 15:30N 32°15' W 090°59'4 8.9
2018-Feb-18 15:01N 32°18' W 090°55'2 4.4
2018-Feb-18 14:30N 32°21' W 090°55'3 7.0
2018-Feb-18 14:01N 32°21' W 090°59'4 7.3
2018-Feb-18 13:31N 32°25' W 090°60'4 8.9
2018-Feb-18 13:01N 32°27' W 091°04'5 8.2
2018-Feb-18 12:25N 32°31' W 091°06'3 7.1
2018-Feb-18 12:00N 32°34' W 091°07'  
2018-Feb-11 12:10N 32°40' W 091°07'1 4.5
2018-Feb-11 12:01N 32°40' W 091°08'2 4.1
2018-Feb-11 11:31N 32°38' W 091°09'2 4.5
2018-Feb-11 11:00N 32°36' W 091°08'2 4.8
2018-Feb-11 10:30N 32°34' W 091°06'2 4.3
2018-Feb-11 10:00N 32°32' W 091°06'2 4.8
2018-Feb-11 09:30N 32°30' W 091°07'2 4.8
2018-Feb-11 09:01N 32°28' W 091°06'3 5.0
2018-Feb-11 08:31N 32°26' W 091°03'2 4.9
2018-Feb-11 08:01N 32°25' W 091°01'2 4.0
2018-Feb-11 07:31N 32°24' W 090°60'2 4.0
2018-Feb-11 07:01N 32°22' W 091°00'2 4.8
2018-Feb-11 06:30N 32°21' W 090°57'0 0.9
2018-Feb-11 06:01N 32°21' W 090°57'1 1.7
2018-Feb-11 05:31N 32°21' W 090°56'2 3.9
2018-Feb-11 05:01N 32°20' W 090°54'2 3.4
2018-Feb-11 04:30N 32°18' W 090°55'2 4.7
2018-Feb-11 04:01N 32°17' W 090°57'2 4.6
2018-Feb-11 03:30N 32°15' W 090°59'2 4.2
2018-Feb-11 03:01N 32°13' W 090°59'2 3.6
2018-Feb-11 02:31N 32°11' W 090°60'2 3.9
2018-Feb-11 02:00N 32°09' W 091°00'2 3.5
2018-Feb-11 01:30N 32°08' W 091°01'2 3.4
2018-Feb-11 00:58N 32°07' W 091°03'2 3.5
2018-Feb-11 00:31N 32°08' W 091°05'2 3.3
2018-Feb-11 00:00N 32°07' W 091°07'5 4.7
2018-Feb-10 23:00N 32°03' W 091°03'  

Dump ship's entire track history